Time;durP1;ratioP1;P1;durP2;ratioP2;P2;SDS_P1;SDS_P2;PMS_P1;PMS_P2;Temp;Humidity;BMP_temperature;BMP_pressure;BME280_temperature;BME280_humidity;BME280_pressure;Samples;Min_cycle;Max_cycle;Signal;HPM_P1;HPM_P2
2022/01/02 00:00:16;;;;;;;4.17;3.10;;;;;;;4.41;79.39;101099.73;1778877;80;25549;-70
2022/01/02 00:02:52;;;;;;;5.70;2.80;;;;;;;4.39;79.26;101095.98;1779351;80;25766;-70
2022/01/02 00:05:23;;;;;;;7.10;3.37;;;;;;;4.37;79.19;101083.89;1778501;80;25715;-69
2022/01/02 00:08:03;;;;;;;5.00;3.10;;;;;;;4.34;79.32;101079.02;1779302;80;25374;-69
2022/01/02 00:10:34;;;;;;;;;;;;;;;4.30;79.47;101078.17;1782099;80;25659;-68
2022/01/02 00:13:03;;;;;;;5.65;2.65;;;;;;;4.28;79.57;101086.98;1752553;80;25668;-70
2022/01/02 00:15:30;;;;;;;4.08;3.00;;;;;;;4.25;79.70;101088.81;1779420;80;27342;-70
2022/01/02 00:18:12;;;;;;;5.83;2.85;;;;;;;4.24;79.71;101089.06;1779202;80;25640;-70
2022/01/02 00:20:32;;;;;;;6.47;3.15;;;;;;;4.24;79.92;101091.23;1776650;80;25446;-69
2022/01/02 00:23:05;;;;;;;5.15;2.85;;;;;;;4.22;79.82;101089.33;1779369;80;26684;-69
2022/01/02 00:25:35;;;;;;;4.40;3.12;;;;;;;4.21;79.97;101082.34;1779271;80;25667;-69
2022/01/02 00:28:01;;;;;;;6.90;4.00;;;;;;;4.20;80.04;101083.92;1779279;80;27352;-70
2022/01/02 00:30:27;;;;;;;4.60;3.45;;;;;;;4.15;79.96;101090.55;1779220;80;25548;-70
2022/01/02 00:32:55;;;;;;;11.35;5.50;;;;;;;4.13;79.86;101089.45;1779233;80;25536;-71
2022/01/02 00:35:22;;;;;;;38.67;17.37;;;;;;;4.09;79.85;101097.17;1779179;80;25643;-70
2022/01/02 00:37:49;;;;;;;10.98;5.78;;;;;;;4.09;79.93;101089.67;1779304;80;25386;-70
2022/01/02 00:40:15;;;;;;;7.83;4.42;;;;;;;4.09;80.00;101084.32;1779269;80;27082;-70
2022/01/02 00:42:43;;;;;;;8.13;4.15;;;;;;;4.08;80.11;101081.34;1779191;80;25369;-70
2022/01/02 00:45:26;;;;;;;9.73;3.80;;;;;;;4.07;80.18;101076.53;1779269;80;25364;-70
2022/01/02 00:48:07;;;;;;;9.05;5.03;;;;;;;4.07;80.30;101084.56;1779254;80;25660;-70
2022/01/02 00:50:45;;;;;;;8.03;5.08;;;;;;;4.07;80.32;101078.38;1779431;80;25616;-69
2022/01/02 00:53:16;;;;;;;9.43;5.42;;;;;;;4.04;80.07;101070.33;1778998;80;28196;-69
2022/01/02 00:55:44;;;;;;;8.05;4.87;;;;;;;4.03;80.13;101074.05;1779276;80;25534;-71
2022/01/02 00:58:16;;;;;;;8.55;4.42;;;;;;;4.01;79.97;101069.47;1779317;80;25556;-71
2022/01/02 01:00:49;;;;;;;12.15;5.60;;;;;;;3.98;80.25;101066.48;1779264;80;25651;-71
2022/01/02 01:03:24;;;;;;;10.35;5.08;;;;;;;3.97;80.38;101067.02;1779328;80;25448;-69
2022/01/02 01:05:54;;;;;;;8.85;4.37;;;;;;;3.97;80.55;101064.84;1779315;80;27422;-70
2022/01/02 01:08:23;;;;;;;11.55;5.65;;;;;;;3.96;80.57;101061.91;1779309;80;25650;-69
2022/01/02 01:10:51;;;;;;;11.80;5.97;;;;;;;3.97;80.58;101057.64;1779449;80;25467;-70
2022/01/02 01:13:18;;;;;;;7.08;4.30;;;;;;;3.97;80.52;101055.48;1757114;80;25620;-70
2022/01/02 01:15:44;;;;;;;9.88;5.03;;;;;;;3.95;80.35;101058.93;1783071;80;25675;-70
2022/01/02 01:18:11;;;;;;;7.60;4.30;;;;;;;3.93;80.48;101054.66;1779393;80;27306;-69
2022/01/02 01:20:42;;;;;;;8.20;4.00;;;;;;;3.93;80.46;101053.83;1779515;80;25676;-70
2022/01/02 01:23:16;;;;;;;9.23;3.90;;;;;;;3.91;80.25;101047.37;1779632;80;25399;-71
2022/01/02 01:25:46;;;;;;;7.05;3.50;;;;;;;3.90;80.46;101050.33;1779240;80;25695;-71
2022/01/02 01:28:15;;;;;;;9.23;5.35;;;;;;;3.90;80.62;101051.66;1779376;80;25379;-71
2022/01/02 01:30:43;;;;;;;10.68;5.65;;;;;;;3.91;80.58;101056.74;1757265;80;27224;-71
2022/01/02 01:33:10;;;;;;;9.90;4.92;;;;;;;3.90;80.59;101052.46;1780908;80;25575;-70
2022/01/02 01:35:37;;;;;;;9.65;5.25;;;;;;;3.89;80.49;101045.48;1781445;80;25569;-71
2022/01/02 01:38:04;;;;;;;12.43;6.10;;;;;;;3.86;80.65;101041.95;1781475;80;25587;-71
2022/01/02 01:40:39;;;;;;;12.23;6.70;;;;;;;3.84;80.75;101039.25;1781561;80;25559;-70
2022/01/02 01:43:05;;;;;;;10.15;5.92;;;;;;;3.81;80.81;101037.86;1780358;80;27344;-70
2022/01/02 01:45:32;;;;;;;14.38;6.70;;;;;;;3.80;81.00;101037.59;1781486;80;25583;-70
2022/01/02 01:48:07;;;;;;;9.45;5.95;;;;;;;3.79;80.99;101023.12;1781457;80;25557;-70
2022/01/02 01:50:39;;;;;;;13.10;6.20;;;;;;;3.78;81.08;101013.45;1781482;80;25617;-69
2022/01/02 01:53:06;;;;;;;14.28;7.15;;;;;;;3.78;81.09;101004.09;1780238;80;25444;-70
2022/01/02 01:55:36;;;;;;;12.28;6.50;;;;;;;3.74;81.11;100997.89;1781492;80;28032;-70
2022/01/02 01:58:04;;;;;;;13.18;6.78;;;;;;;3.71;81.18;100999.73;1781569;80;25372;-71
2022/01/02 02:00:33;;;;;;;13.93;6.97;;;;;;;3.69;81.28;100997.02;1781756;80;25467;-71
2022/01/02 02:03:01;;;;;;;12.25;6.67;;;;;;;3.66;81.33;101000.17;1781579;80;35218;-71
2022/01/02 02:05:28;;;;;;;16.77;7.42;;;;;;;3.65;81.51;101001.25;1781495;80;25404;-70
2022/01/02 02:07:54;;;;;;;14.33;7.10;;;;;;;3.61;81.49;100993.41;1781449;80;28201;-70
2022/01/02 02:10:38;;;;;;;16.70;7.60;;;;;;;3.56;81.61;100992.83;1781447;80;25585;-70
2022/01/02 02:13:04;;;;;;;18.52;8.05;;;;;;;3.55;81.73;100997.88;1781007;80;25546;-69
2022/01/02 02:15:31;;;;;;;13.95;7.45;;;;;;;3.53;81.90;100989.30;1781580;80;25802;-69
2022/01/02 02:17:58;;;;;;;18.07;8.73;;;;;;;3.53;81.94;100985.28;1781420;80;25565;-69
2022/01/02 02:20:30;;;;;;;15.75;8.33;;;;;;;3.51;82.08;100980.18;1781458;80;27949;-69
2022/01/02 02:22:59;;;;;;;13.35;7.60;;;;;;;3.52;82.15;100982.31;1754859;80;25633;-69
2022/01/02 02:25:29;;;;;;;11.08;6.90;;;;;;;3.51;82.25;100974.03;1781632;80;25559;-69
2022/01/02 02:28:00;;;;;;;12.80;7.47;;;;;;;3.49;82.22;100976.11;1781435;80;26524;-69
2022/01/02 02:30:31;;;;;;;13.88;7.22;;;;;;;3.49;82.26;100974.77;1781393;80;25548;-69
2022/01/02 02:33:00;;;;;;;13.53;7.25;;;;;;;3.48;82.44;100965.95;1783433;80;27376;-69
2022/01/02 02:35:29;;;;;;;16.27;7.77;;;;;;;3.46;82.50;100961.38;1784539;80;25622;-70
2022/01/02 02:37:56;;;;;;;12.47;7.37;;;;;;;3.46;82.61;100961.38;1784532;80;25580;-70
2022/01/02 02:40:27;;;;;;;13.40;7.28;;;;;;;3.47;82.77;100967.53;1759982;80;25639;-69
2022/01/02 02:42:59;;;;;;;14.40;7.40;;;;;;;3.49;82.74;100962.73;1784429;80;25714;-70
2022/01/02 02:51:22;;;;;;;12.28;6.80;;;;;;;3.48;82.77;100956.59;1784382;80;25593;-69
2022/01/02 02:53:49;;;;;;;12.88;6.15;;;;;;;3.46;82.94;100959.23;1784107;80;25616;-69
2022/01/02 02:56:23;;;;;;;11.03;6.62;;;;;;;3.46;83.01;100960.05;1784406;80;25442;-70
2022/01/02 02:58:55;;;;;;;12.03;6.80;;;;;;;3.46;83.14;100946.67;1784024;80;27336;-69
2022/01/02 03:01:23;;;;;;;10.20;6.08;;;;;;;3.45;83.21;100953.06;1784097;80;25603;-69
2022/01/02 03:03:50;;;;;;;9.85;5.90;;;;;;;3.45;83.21;100949.58;1784513;80;25542;-70
2022/01/02 03:06:18;;;;;;;10.85;6.03;;;;;;;3.43;83.23;100947.16;1759930;80;25803;-69
2022/01/02 03:08:46;;;;;;;12.55;6.47;;;;;;;3.44;83.46;100942.09;1784359;80;25628;-69
2022/01/02 03:11:15;;;;;;;10.23;5.85;;;;;;;3.44;83.51;100932.73;1784355;80;27976;-69
2022/01/02 03:13:43;;;;;;;10.72;6.00;;;;;;;3.46;83.68;100923.94;1784512;80;25592;-69
2022/01/02 03:16:11;;;;;;;9.75;5.90;;;;;;;3.46;83.62;100921.26;1784372;80;25631;-69
2022/01/02 03:18:39;;;;;;;10.38;6.03;;;;;;;3.49;83.77;100918.61;1784326;80;26213;-70
2022/01/02 03:21:07;;;;;;;11.53;6.00;;;;;;;3.50;83.78;100931.73;1784441;80;25474;-70
2022/01/02 03:23:34;;;;;;;11.80;5.97;;;;;;;3.50;83.74;100929.06;1784495;80;27301;-70
2022/01/02 03:26:01;;;;;;;10.65;5.58;;;;;;;3.50;83.81;100917.02;1784273;80;25553;-70
2022/01/02 03:28:28;;;;;;;12.75;6.03;;;;;;;3.50;83.90;100900.98;1784342;80;25588;-70
2022/01/02 03:30:54;;;;;;;10.85;6.08;;;;;;;3.51;83.93;100897.80;1784327;80;25567;-69
2022/01/02 03:33:21;;;;;;;11.95;6.30;;;;;;;3.48;83.99;100892.39;1782062;79;25435;-69
2022/01/02 03:35:47;;;;;;;8.53;5.65;;;;;;;3.47;84.07;100886.75;1781287;80;27531;-69
2022/01/02 03:38:14;;;;;;;9.53;5.20;;;;;;;3.46;84.21;100885.69;1781171;80;27147;-69
2022/01/02 03:40:41;;;;;;;9.98;5.25;;;;;;;3.44;84.37;100888.61;1781343;80;25458;-69
2022/01/02 03:43:08;;;;;;;10.58;5.62;;;;;;;3.44;84.49;100891.79;1781261;80;25757;-70
2022/01/02 03:45:34;;;;;;;8.75;5.22;;;;;;;3.43;84.60;100888.84;1781279;80;25637;-70
2022/01/02 03:48:01;;;;;;;8.35;5.60;;;;;;;3.41;84.82;100872.25;1781224;80;27449;-70
2022/01/02 03:50:28;;;;;;;8.18;5.22;;;;;;;3.41;84.91;100872.25;1781226;80;25533;-70
2022/01/02 03:52:54;;;;;;;9.50;5.33;;;;;;;3.40;84.96;100861.26;1781260;80;25449;-69
2022/01/02 03:55:21;;;;;;;10.68;5.58;;;;;;;3.39;85.01;100859.63;1781273;80;25833;-69
2022/01/02 03:57:49;;;;;;;10.98;5.62;;;;;;;3.38;85.04;100859.36;1781320;80;25538;-70
2022/01/02 04:00:18;;;;;;;7.15;4.75;;;;;;;3.39;85.09;100859.12;1754950;80;28624;-69
2022/01/02 04:02:45;;;;;;;7.20;5.03;;;;;;;3.38;85.18;100861.50;1781307;80;25518;-69
2022/01/02 04:05:14;;;;;;;7.00;4.55;;;;;;;3.38;85.10;100849.47;1781327;80;25347;-69
2022/01/02 04:07:42;;;;;;;9.13;4.70;;;;;;;3.39;85.23;100843.58;1754945;80;25639;-69
2022/01/02 04:10:13;;;;;;;6.85;4.47;;;;;;;3.38;85.20;100845.45;1781278;80;25691;-69
2022/01/02 04:12:40;;;;;;;11.33;5.30;;;;;;;3.38;85.17;100841.44;1781285;80;27330;-70
2022/01/02 04:15:10;;;;;;;7.12;4.87;;;;;;;3.40;85.29;100827.83;1781208;80;25619;-69
2022/01/02 04:17:37;;;;;;;8.00;5.22;;;;;;;3.41;85.37;100822.77;1781353;80;25530;-69
2022/01/02 04:20:07;;;;;;;9.73;5.83;;;;;;;3.41;85.46;100828.12;1781198;80;25694;-69
2022/01/02 04:22:34;;;;;;;9.58;5.28;;;;;;;3.41;85.47;100819.56;1781293;80;25390;-70
2022/01/02 04:25:01;;;;;;;10.18;5.08;;;;;;;3.40;85.65;100814.45;1781255;80;27494;-69
2022/01/02 04:27:28;;;;;;;10.60;5.33;;;;;;;3.41;85.76;100812.87;1781067;80;25601;-69
2022/01/02 04:29:55;;;;;;;10.75;5.35;;;;;;;3.40;85.85;100801.88;1781341;80;25579;-69
2022/01/02 04:32:22;;;;;;;7.85;5.05;;;;;;;3.38;85.92;100799.99;1780712;80;25919;-69
2022/01/02 04:34:49;;;;;;;10.48;5.62;;;;;;;3.37;86.38;100791.67;1757171;80;25556;-69
2022/01/02 04:37:15;;;;;;;9.88;5.70;;;;;;;3.37;86.46;100780.98;1779287;80;27460;-69
2022/01/02 04:39:42;;;;;;;9.88;5.45;;;;;;;3.35;86.70;100781.77;1779220;80;25379;-69
2022/01/02 04:42:09;;;;;;;10.85;5.67;;;;;;;3.35;86.45;100771.06;1779307;80;25442;-70
2022/01/02 04:44:35;;;;;;;10.78;5.47;;;;;;;3.35;86.77;100764.38;1779257;80;25700;-70
2022/01/02 04:47:03;;;;;;;10.43;5.53;;;;;;;3.34;86.64;100772.94;1779299;80;25599;-70
2022/01/02 04:49:29;;;;;;;9.28;5.83;;;;;;;3.33;86.72;100753.93;1779260;80;27177;-70
2022/01/02 04:51:56;;;;;;;14.85;5.72;;;;;;;3.33;86.80;100742.44;1779244;80;25371;-70
2022/01/02 04:54:24;;;;;;;10.50;5.50;;;;;;;3.34;86.99;100740.86;1779284;80;25470;-70
2022/01/02 04:56:51;;;;;;;11.30;5.75;;;;;;;3.34;87.01;100736.05;1779248;80;25612;-70
2022/01/02 04:59:18;;;;;;;10.88;6.42;;;;;;;3.34;87.18;100740.05;1779386;80;25625;-70
2022/01/02 05:01:45;;;;;;;7.80;5.72;;;;;;;3.34;87.35;100727.48;1779281;80;27472;-70
2022/01/02 05:04:11;;;;;;;7.90;5.60;;;;;;;3.35;87.13;100716.25;1779222;80;25700;-71
2022/01/02 05:06:39;;;;;;;8.53;6.08;;;;;;;3.35;87.18;100713.06;1779253;80;25512;-71
2022/01/02 05:09:06;;;;;;;8.90;5.50;;;;;;;3.36;87.26;100707.18;1779227;80;25622;-71
2022/01/02 05:11:32;;;;;;;9.73;5.80;;;;;;;3.35;87.39;100691.67;1779283;80;25628;-69
2022/01/02 05:13:59;;;;;;;10.00;5.45;;;;;;;3.35;87.43;100690.84;1779260;80;27290;-69
2022/01/02 05:16:28;;;;;;;12.07;6.45;;;;;;;3.34;87.37;100698.07;1779219;80;25383;-69
2022/01/02 05:18:54;;;;;;;13.72;6.37;;;;;;;3.34;87.44;100686.58;1779340;80;25371;-70
2022/01/02 05:21:21;;;;;;;9.05;6.80;;;;;;;3.34;87.55;100698.07;1779315;80;25699;-70
2022/01/02 05:23:47;;;;;;;9.85;5.67;;;;;;;3.37;87.79;100702.09;1757313;80;25661;-70
2022/01/02 05:26:14;;;;;;;10.03;6.35;;;;;;;3.38;87.68;100691.69;1779344;80;27473;-70
2022/01/02 05:28:40;;;;;;;10.30;6.40;;;;;;;3.39;87.74;100694.66;1757046;80;25540;-70
2022/01/02 05:31:07;;;;;;;11.12;6.47;;;;;;;3.40;87.86;100694.91;1779276;80;25382;-70
2022/01/02 05:33:33;;;;;;;11.20;6.35;;;;;;;3.42;87.91;100687.44;1779330;80;25714;-70
2022/01/02 05:36:00;;;;;;;9.48;6.30;;;;;;;3.45;87.96;100684.81;1779610;80;25378;-70
2022/01/02 05:38:26;;;;;;;11.55;6.62;;;;;;;3.46;88.15;100676.53;1779524;80;27351;-69
2022/01/02 05:40:55;;;;;;;14.00;7.08;;;;;;;3.46;88.11;100675.20;1779266;80;25415;-69
2022/01/02 05:43:21;;;;;;;10.63;6.00;;;;;;;3.48;88.17;100670.40;1779374;80;25475;-69
2022/01/02 05:45:48;;;;;;;12.03;6.90;;;;;;;3.49;88.46;100645.79;1779319;80;26190;-69
2022/01/02 05:48:14;;;;;;;12.15;7.00;;;;;;;3.50;88.57;100647.42;1779224;80;25607;-69
2022/01/02 05:50:41;;;;;;;13.50;7.60;;;;;;;3.49;88.74;100654.64;1732270;80;27563;-69
2022/01/02 05:53:07;;;;;;;15.13;7.42;;;;;;;3.49;89.01;100653.30;1779165;80;25471;-69
2022/01/02 05:55:33;;;;;;;15.10;7.65;;;;;;;3.48;89.33;100657.02;1757138;80;25579;-69
2022/01/02 05:58:00;;;;;;;17.80;9.08;;;;;;;3.48;89.64;100657.02;1779275;80;27841;-69
2022/01/02 06:00:26;;;;;;;15.78;8.08;;;;;;;3.48;89.82;100644.98;1779402;80;25390;-70
2022/01/02 06:02:53;;;;;;;14.18;8.33;;;;;;;3.46;89.92;100632.41;1779382;80;27840;-70
2022/01/02 06:05:19;;;;;;;14.47;7.62;;;;;;;3.45;90.29;100622.75;1779332;80;25363;-70
2022/01/02 06:07:46;;;;;;;18.05;8.55;;;;;;;3.43;90.63;100621.41;1779513;80;25528;-71
2022/01/02 06:10:12;;;;;;;16.15;8.45;;;;;;;3.42;90.74;100620.58;1779671;80;25612;-71
2022/01/02 06:12:39;;;;;;;15.50;8.05;;;;;;;3.39;91.04;100614.42;1757705;80;25610;-71
2022/01/02 06:15:06;;;;;;;16.93;8.80;;;;;;;3.38;91.09;100606.12;1779841;80;27085;-72
2022/01/02 06:17:33;;;;;;;15.65;8.90;;;;;;;3.36;91.49;100605.03;1779426;80;25569;-72
2022/01/02 06:20:00;;;;;;;15.10;8.30;;;;;;;3.35;91.64;100602.09;1779461;80;25393;-73
2022/01/02 06:22:26;;;;;;;18.25;9.58;;;;;;;3.35;91.85;100604.77;1779386;80;25664;-73
2022/01/02 06:24:53;;;;;;;16.95;9.50;;;;;;;3.35;92.64;100605.28;1779468;80;25436;-73
2022/01/02 06:27:20;;;;;;;18.27;9.53;;;;;;;3.35;92.31;100605.28;1779432;80;27321;-73
2022/01/02 06:29:46;;;;;;;19.17;9.85;;;;;;;3.36;92.77;100602.89;1779285;80;25766;-73
2022/01/02 06:32:13;;;;;;;17.82;9.83;;;;;;;3.36;92.74;100601.02;1779397;80;25595;-74
2022/01/02 06:34:39;;;;;;;18.90;10.10;;;;;;;3.35;92.75;100598.09;1779342;80;26159;-74
2022/01/02 06:37:05;;;;;;;21.75;10.53;;;;;;;3.33;93.22;100590.82;1779445;80;25441;-74
2022/01/02 06:39:32;;;;;;;19.80;9.95;;;;;;;3.34;93.16;100599.13;1779402;80;28025;-74
2022/01/02 06:41:58;;;;;;;21.70;11.22;;;;;;;3.34;93.24;100594.33;1779301;80;25391;-73
2022/01/02 06:44:25;;;;;;;19.60;10.58;;;;;;;3.33;93.51;100581.47;1779394;80;25570;-73
2022/01/02 06:46:52;;;;;;;21.05;10.93;;;;;;;3.33;93.64;100580.13;1779384;80;25639;-73
2022/01/02 06:49:18;;;;;;;19.40;11.38;;;;;;;3.32;93.90;100582.55;1779360;80;25550;-73
2022/01/02 06:51:44;;;;;;;19.40;10.53;;;;;;;3.30;93.98;100575.31;1779374;80;27310;-73
2022/01/02 06:54:10;;;;;;;17.37;10.68;;;;;;;3.29;94.26;100553.63;1783123;80;25770;-75
2022/01/02 06:56:37;;;;;;;25.20;11.03;;;;;;;3.29;94.43;100564.33;1779360;80;25596;-73
2022/01/02 06:59:03;;;;;;;22.55;11.40;;;;;;;3.29;94.95;100564.87;1779361;80;25630;-72
2022/01/02 07:01:29;;;;;;;27.15;12.03;;;;;;;3.28;94.82;100552.01;1779427;80;25402;-70
2022/01/02 07:03:55;;;;;;;23.50;11.55;;;;;;;3.28;95.00;100546.66;1757160;80;27404;-72
2022/01/02 07:06:21;;;;;;;18.25;10.95;;;;;;;3.26;95.26;100544.77;1779329;80;25640;-72
2022/01/02 07:08:48;;;;;;;24.75;11.33;;;;;;;3.27;95.45;100534.88;1779334;80;25577;-71
2022/01/02 07:11:14;;;;;;;21.00;11.08;;;;;;;3.28;95.34;100534.63;1779334;80;26117;-71
2022/01/02 07:13:40;;;;;;;21.35;11.40;;;;;;;3.29;95.57;100540.80;1779343;80;25605;-71
2022/01/02 07:16:07;;;;;;;19.55;10.68;;;;;;;3.29;95.43;100534.12;1779369;80;27833;-72
2022/01/02 07:18:33;;;;;;;22.48;11.78;;;;;;;3.31;95.67;100534.66;1757183;80;25389;-72
2022/01/02 07:21:00;;;;;;;26.27;12.35;;;;;;;3.29;96.23;100521.55;1779377;80;25493;-73
2022/01/02 07:23:26;;;;;;;24.87;12.53;;;;;;;3.30;96.10;100525.02;1779287;80;25617;-72
2022/01/02 07:25:53;;;;;;;26.45;12.73;;;;;;;3.31;96.08;100540.02;1779340;80;25440;-72
2022/01/02 07:28:21;;;;;;;25.35;13.45;;;;;;;3.31;96.47;100531.98;1779318;80;27389;-72
2022/01/02 07:30:47;;;;;;;23.00;12.98;;;;;;;3.32;96.82;100533.08;1779293;80;25550;-72
2022/01/02 07:33:13;;;;;;;27.00;13.78;;;;;;;3.33;97.02;100522.64;1779250;80;25560;-72
2022/01/02 07:35:40;;;;;;;25.05;13.00;;;;;;;3.36;96.90;100515.98;1779258;80;25726;-72
2022/01/02 07:38:06;;;;;;;26.62;12.88;;;;;;;3.38;96.96;100504.50;1779405;80;25446;-73
2022/01/02 07:40:33;;;;;;;26.77;12.40;;;;;;;3.40;96.94;100500.23;1779338;80;27318;-73
2022/01/02 07:42:59;;;;;;;28.45;12.43;;;;;;;3.41;97.14;100502.66;1779232;80;25634;-72
2022/01/02 07:45:26;;;;;;;28.95;13.65;;;;;;;3.44;97.13;100491.97;1779333;80;25396;-72
2022/01/02 07:47:52;;;;;;;27.45;13.53;;;;;;;3.44;97.96;100497.31;1779291;80;25629;-72
2022/01/02 07:50:22;;;;;;;26.30;13.85;;;;;;;3.45;97.44;100490.92;1779386;80;25372;-72
2022/01/02 07:52:48;;;;;;;31.37;14.47;;;;;;;3.47;97.77;100482.90;1779156;80;27627;-72
2022/01/02 07:55:15;;;;;;;27.40;13.30;;;;;;;3.47;97.93;100456.16;1779269;80;25560;-72
2022/01/02 07:57:41;;;;;;;33.88;15.38;;;;;;;3.47;97.87;100445.45;1779329;80;25390;-72
2022/01/02 08:00:09;;;;;;;30.77;15.30;;;;;;;3.51;98.17;100448.45;1779324;80;25597;-72
2022/01/02 08:02:35;;;;;;;32.28;14.18;;;;;;;3.52;97.77;100460.73;1779355;80;25597;-72
2022/01/02 08:05:02;;;;;;;33.48;15.08;;;;;;;3.55;97.81;100452.20;1779287;80;27911;-71
2022/01/02 08:07:28;;;;;;;38.13;15.98;;;;;;;3.56;98.19;100443.13;1757213;80;25467;-72
2022/01/02 08:09:54;;;;;;;30.35;15.28;;;;;;;3.55;98.29;100436.16;1779307;80;25456;-72
2022/01/02 08:12:21;;;;;;;38.58;15.38;;;;;;;3.58;98.15;100425.48;1779233;80;26174;-73
2022/01/02 08:14:47;;;;;;;31.82;16.10;;;;;;;3.59;98.36;100427.88;1779403;80;25390;-72
2022/01/02 08:17:13;;;;;;;35.98;15.75;;;;;;;3.61;98.29;100422.27;1757119;80;27865;-72
2022/01/02 08:19:40;;;;;;;37.28;16.20;;;;;;;3.63;98.48;100416.16;1779231;80;25732;-72
2022/01/02 08:22:06;;;;;;;39.48;16.12;;;;;;;3.66;98.56;100412.94;1779313;80;25658;-71
2022/01/02 08:24:33;;;;;;;31.65;14.00;;;;;;;3.66;98.54;100411.09;1757153;80;26075;-72
2022/01/02 08:26:59;;;;;;;36.13;15.95;;;;;;;3.70;98.74;100397.45;1779303;80;25638;-72
2022/01/02 08:29:25;;;;;;;43.68;16.30;;;;;;;3.72;98.79;100397.19;1757302;80;28085;-72
2022/01/02 08:31:52;;;;;;;39.45;16.75;;;;;;;3.72;98.98;100381.14;1757081;80;25448;-72
2022/01/02 08:34:18;;;;;;;31.95;16.30;;;;;;;3.74;98.95;100394.52;1779201;80;25876;-70
2022/01/02 08:36:45;;;;;;;37.55;16.93;;;;;;;3.79;99.40;100406.33;1778748;80;26123;-70
2022/01/02 08:39:11;;;;;;;33.58;15.78;;;;;;;3.79;99.46;100403.65;1757129;80;25400;-70
2022/01/02 08:41:37;;;;;;;39.58;17.23;;;;;;;3.84;99.60;100404.47;1779222;80;27884;-70
2022/01/02 08:44:04;;;;;;;40.65;16.87;;;;;;;3.87;99.76;100396.47;1765930;80;25670;-70
2022/01/02 08:46:31;;;;;;;39.60;16.80;;;;;;;3.91;99.61;100402.34;1759887;80;25537;-70
2022/01/02 08:48:57;;;;;;;36.23;17.23;;;;;;;3.95;99.67;100395.97;1755616;80;26426;-70
2022/01/02 08:51:27;;;;;;;37.93;17.02;;;;;;;4.01;99.96;100396.23;1757930;80;25727;-70
2022/01/02 08:53:53;;;;;;;48.28;18.65;;;;;;;4.06;99.74;100377.52;1753569;80;27425;-70
2022/01/02 08:56:20;;;;;;;39.48;16.73;;;;;;;4.07;99.74;100379.14;1752210;80;25739;-70
2022/01/02 08:58:46;;;;;;;44.65;18.62;;;;;;;4.10;99.78;100397.87;1755099;80;25696;-70
2022/01/02 09:01:12;;;;;;;34.53;17.65;;;;;;;4.15;99.66;100381.02;1759842;80;26260;-70
2022/01/02 09:03:39;;;;;;;40.00;17.55;;;;;;;4.18;99.69;100391.21;1733486;80;25631;-70
2022/01/02 09:06:05;;;;;;;39.40;17.48;;;;;;;4.22;99.99;100373.55;1749362;80;27356;-70
2022/01/02 09:08:32;;;;;;;38.20;18.00;;;;;;;4.25;99.92;100359.63;1747094;80;25617;-72
2022/01/02 09:10:59;;;;;;;41.68;18.40;;;;;;;4.28;100.00;100356.43;1778992;80;25385;-71
2022/01/02 09:13:26;;;;;;;42.70;19.70;;;;;;;4.32;100.00;100352.14;1778649;80;25689;-71
2022/01/02 09:15:54;;;;;;;37.60;18.85;;;;;;;4.35;100.00;100355.63;1778763;80;25611;-71
2022/01/02 09:18:20;;;;;;;41.65;19.15;;;;;;;4.37;100.00;100344.11;1778910;80;26819;-71
2022/01/02 09:20:47;;;;;;;42.62;18.35;;;;;;;4.41;100.00;100333.67;1778614;80;25601;-71
2022/01/02 09:23:13;;;;;;;41.10;18.55;;;;;;;4.46;100.00;100325.13;1779028;80;25704;-71
2022/01/02 09:25:40;;;;;;;40.90;18.48;;;;;;;4.53;100.00;100325.37;1778898;80;26210;-71
2022/01/02 09:28:06;;;;;;;40.30;19.27;;;;;;;4.59;100.00;100314.94;1778924;80;25593;-72
2022/01/02 09:30:33;;;;;;;49.48;19.35;;;;;;;4.66;100.00;100323.50;1778744;80;27327;-72
2022/01/02 09:33:01;;;;;;;40.92;18.85;;;;;;;4.70;100.00;100309.85;1782619;80;25579;-73
2022/01/02 09:35:27;;;;;;;39.30;19.00;;;;;;;4.77;100.00;100313.60;1778673;80;25516;-72
2022/01/02 09:37:54;;;;;;;49.60;24.05;;;;;;;4.82;100.00;100309.03;1778512;80;25671;-73
2022/01/02 09:40:21;;;;;;;50.70;19.95;;;;;;;4.89;100.00;100310.61;1774683;80;25718;-73
2022/01/02 09:42:48;;;;;;;50.38;19.73;;;;;;;4.95;100.00;100294.80;1748198;81;27547;-72
2022/01/02 09:45:14;;;;;;;42.98;18.92;;;;;;;5.00;100.00;100291.56;1747984;82;25716;-72
2022/01/02 09:47:44;;;;;;;42.55;19.87;;;;;;;5.05;100.00;100279.48;1748281;81;25487;-73
2022/01/02 09:50:11;;;;;;;41.40;18.92;;;;;;;5.12;100.00;100283.22;1748278;82;25630;-72
2022/01/02 09:52:37;;;;;;;45.12;19.17;;;;;;;5.20;100.00;100272.49;1748205;81;25669;-73
2022/01/02 09:55:05;;;;;;;43.23;19.65;;;;;;;5.23;100.00;100266.04;1748145;82;27943;-73
2022/01/02 09:57:31;;;;;;;44.40;19.17;;;;;;;5.29;100.00;100259.31;1726987;82;25557;-73
2022/01/02 09:59:58;;;;;;;42.65;19.57;;;;;;;5.35;100.00;100250.98;1748292;81;25458;-73
2022/01/02 10:02:24;;;;;;;43.20;19.12;;;;;;;5.41;100.00;100245.04;1748141;81;26168;-73
2022/01/02 10:05:03;;;;;;;39.08;19.48;;;;;;;5.47;100.00;100249.86;1747996;82;25657;-72
2022/01/02 10:07:33;;;;;;;42.55;20.23;;;;;;;5.52;100.00;100227.83;1747979;81;28089;-72
2022/01/02 10:10:11;;;;;;;43.92;19.80;;;;;;;5.58;100.00;100208.47;1726609;82;25455;-72
2022/01/02 10:12:38;;;;;;;46.08;21.15;;;;;;;5.63;100.00;100207.09;1748024;82;25695;-73
2022/01/02 10:15:15;;;;;;;48.70;22.13;;;;;;;5.67;100.00;100193.92;1748091;82;25770;-72
2022/01/02 10:18:07;;;;;;;46.28;21.73;;;;;;;5.73;100.00;100184.22;1738340;82;25626;-73
2022/01/02 10:20:43;;;;;;;44.93;21.05;;;;;;;5.77;100.00;100191.99;1678035;85;27336;-72
2022/01/02 10:23:20;;;;;;;49.98;21.35;;;;;;;5.83;100.00;100172.62;1678005;85;26321;-72
2022/01/02 10:25:57;;;;;;;52.58;22.10;;;;;;;5.88;100.00;100151.66;1678191;85;25681;-72
2022/01/02 10:28:38;;;;;;;49.10;22.80;;;;;;;5.90;100.00;100128.80;1678088;85;26324;-71
2022/01/02 10:31:12;;;;;;;44.85;20.72;;;;;;;5.94;100.00;100114.27;1655158;85;25633;-72
2022/01/02 10:33:59;;;;;;;49.10;22.48;;;;;;;5.96;100.00;100107.58;1678179;85;27346;-72
2022/01/02 10:36:37;;;;;;;48.05;22.70;;;;;;;6.00;100.00;100095.73;1677981;85;25548;-72
2022/01/02 10:39:19;;;;;;;45.00;22.80;;;;;;;6.02;100.00;100084.16;1678113;85;25753;-72
2022/01/02 10:41:50;;;;;;;47.40;23.42;;;;;;;6.03;100.00;100083.09;1678005;85;25626;-74
2022/01/02 10:44:36;;;;;;;45.90;22.15;;;;;;;6.03;100.00;100083.09;1678038;85;25806;-73
2022/01/02 10:47:21;;;;;;;49.90;23.27;;;;;;;6.06;100.00;100086.55;1677985;84;28010;-72
2022/01/02 10:50:05;;;;;;;49.70;23.02;;;;;;;6.09;100.00;100086.52;1657518;85;25648;-73
2022/01/02 10:52:36;;;;;;;47.23;22.27;;;;;;;6.13;100.00;100078.13;1678016;85;25681;-71
2022/01/02 10:55:18;;;;;;;51.80;23.95;;;;;;;6.17;100.00;100089.38;1677900;85;26336;-73
2022/01/02 10:57:48;;;;;;;46.23;22.90;;;;;;;6.23;100.00;100070.52;1706137;83;25652;-72
2022/01/02 11:00:17;;;;;;;47.08;23.12;;;;;;;6.30;100.00;100061.58;1718368;83;29638;-72
2022/01/02 11:02:45;;;;;;;44.50;22.95;;;;;;;6.36;100.00;100056.41;1718187;83;25585;-72
2022/01/02 11:05:15;;;;;;;43.75;23.40;;;;;;;6.40;100.00;100048.58;1718257;83;25762;-72
2022/01/02 11:07:48;;;;;;;;;;;;;;;6.44;100.00;100047.73;1720750;83;25744;-73
2022/01/02 11:10:18;;;;;;;44.15;21.87;;;;;;;6.49;100.00;100028.85;1718183;83;25615;-73
2022/01/02 11:12:47;;;;;;;43.73;24.12;;;;;;;6.53;100.00;100030.42;1718232;83;27318;-73
2022/01/02 11:15:18;;;;;;;42.75;22.70;;;;;;;6.55;100.00;100025.55;1718433;83;25605;-73
2022/01/02 11:17:45;;;;;;;44.10;22.95;;;;;;;6.57;100.00;100027.40;1718439;83;25410;-73
2022/01/02 11:20:16;;;;;;;45.17;23.40;;;;;;;6.59;100.00;100030.63;1718349;83;26002;-73
2022/01/02 11:23:07;;;;;;;41.33;22.80;;;;;;;6.62;100.00;100013.10;1718091;83;25722;-73
2022/01/02 11:25:46;;;;;;;40.92;21.52;;;;;;;6.64;100.00;100012.27;1718219;83;27513;-72
2022/01/02 11:28:46;;;;;;;42.73;21.77;;;;;;;6.68;100.00;100003.34;1718265;83;26016;-73
2022/01/02 11:31:28;;;;;;;;;;;;;;;6.71;100.00;99998.73;1672776;83;25720;-72
2022/01/02 11:33:54;;;;;;;39.25;22.15;;;;;;;6.76;100.00;99984.95;1717741;83;25792;-72